sensor_id;sensor_type;location;lat;lon;timestamp;pressure;altitude;pressure_sealevel;temperature;humidity
65384;BME280;51986;52.788;41.368;2023-06-22T00:01:19;99599.84;;;11.91;49.18
65384;BME280;51986;52.788;41.368;2023-06-22T00:03:47;99589.66;;;11.93;49.12
65384;BME280;51986;52.788;41.368;2023-06-22T00:06:14;99568.91;;;11.92;49.40
65384;BME280;51986;52.788;41.368;2023-06-22T00:08:41;99579.56;;;11.81;49.58
65384;BME280;51986;52.788;41.368;2023-06-22T00:11:08;99570.13;;;11.80;49.55
65384;BME280;51986;52.788;41.368;2023-06-22T00:13:35;99567.94;;;11.75;49.30
65384;BME280;51986;52.788;41.368;2023-06-22T00:16:02;99572.88;;;11.73;50.21
65384;BME280;51986;52.788;41.368;2023-06-22T00:18:29;99569.84;;;11.67;50.17
65384;BME280;51986;52.788;41.368;2023-06-22T00:20:56;99594.75;;;11.73;49.86
65384;BME280;51986;52.788;41.368;2023-06-22T00:23:26;99575.91;;;11.68;49.90
65384;BME280;51986;52.788;41.368;2023-06-22T00:25:53;99547.22;;;11.63;49.47
65384;BME280;51986;52.788;41.368;2023-06-22T00:28:20;99578.16;;;11.66;49.55
65384;BME280;51986;52.788;41.368;2023-06-22T00:30:49;99572.47;;;11.74;49.65
65384;BME280;51986;52.788;41.368;2023-06-22T00:33:17;99546.53;;;11.58;50.02
65384;BME280;51986;52.788;41.368;2023-06-22T00:35:44;99576.34;;;11.59;50.65
65384;BME280;51986;52.788;41.368;2023-06-22T00:38:11;99559.06;;;11.51;49.74
65384;BME280;51986;52.788;41.368;2023-06-22T00:40:41;99577.41;;;11.69;49.52
65384;BME280;51986;52.788;41.368;2023-06-22T00:43:08;99584.53;;;11.75;49.99
65384;BME280;51986;52.788;41.368;2023-06-22T00:45:35;99569.81;;;11.71;49.69
65384;BME280;51986;52.788;41.368;2023-06-22T00:48:03;99577.00;;;11.70;49.51
65384;BME280;51986;52.788;41.368;2023-06-22T00:50:32;99571.34;;;11.72;49.80
65384;BME280;51986;52.788;41.368;2023-06-22T00:53:05;99574.38;;;11.67;49.91
65384;BME280;51986;52.788;41.368;2023-06-22T00:55:32;99582.69;;;11.69;50.18
65384;BME280;51986;52.788;41.368;2023-06-22T00:57:59;99587.16;;;11.75;49.72
65384;BME280;51986;52.788;41.368;2023-06-22T01:00:26;99587.91;;;11.76;49.85
65384;BME280;51986;52.788;41.368;2023-06-22T01:02:54;99594.00;;;11.73;49.84
65384;BME280;51986;52.788;41.368;2023-06-22T01:05:22;99586.47;;;11.68;50.12
65384;BME280;51986;52.788;41.368;2023-06-22T01:08:00;99592.94;;;11.59;50.22
65384;BME280;51986;52.788;41.368;2023-06-22T01:10:44;99597.06;;;11.64;50.35
65384;BME280;51986;52.788;41.368;2023-06-22T01:13:39;99608.41;;;11.61;50.33
65384;BME280;51986;52.788;41.368;2023-06-22T01:16:16;99585.97;;;11.35;50.97
65384;BME280;51986;52.788;41.368;2023-06-22T01:18:47;99607.41;;;11.44;51.05
65384;BME280;51986;52.788;41.368;2023-06-22T01:21:18;99614.13;;;11.52;50.99
65384;BME280;51986;52.788;41.368;2023-06-22T01:29:00;99602.22;;;11.82;50.20
65384;BME280;51986;52.788;41.368;2023-06-22T01:31:31;99622.66;;;11.78;50.63
65384;BME280;51986;52.788;41.368;2023-06-22T01:34:02;99618.13;;;11.75;50.93
65384;BME280;51986;52.788;41.368;2023-06-22T01:36:31;99610.94;;;11.79;50.07
65384;BME280;51986;52.788;41.368;2023-06-22T01:38:59;99614.66;;;11.81;50.48
65384;BME280;51986;52.788;41.368;2023-06-22T01:41:28;99616.13;;;11.86;50.46
65384;BME280;51986;52.788;41.368;2023-06-22T01:43:56;99623.28;;;11.93;50.11
65384;BME280;51986;52.788;41.368;2023-06-22T01:46:23;99627.41;;;11.94;50.47
65384;BME280;51986;52.788;41.368;2023-06-22T01:48:50;99606.03;;;11.77;50.75
65384;BME280;51986;52.788;41.368;2023-06-22T01:51:18;99617.66;;;11.87;50.57
65384;BME280;51986;52.788;41.368;2023-06-22T01:53:45;99640.72;;;11.83;49.95
65384;BME280;51986;52.788;41.368;2023-06-22T01:56:12;99625.97;;;11.85;50.06
65384;BME280;51986;52.788;41.368;2023-06-22T01:58:49;99625.25;;;11.81;50.32
65384;BME280;51986;52.788;41.368;2023-06-22T02:01:22;99642.13;;;11.95;50.03
65384;BME280;51986;52.788;41.368;2023-06-22T02:04:02;99599.84;;;11.91;49.77
65384;BME280;51986;52.788;41.368;2023-06-22T02:06:34;99611.94;;;11.92;49.70
65384;BME280;51986;52.788;41.368;2023-06-22T02:09:04;99638.19;;;12.10;49.19
65384;BME280;51986;52.788;41.368;2023-06-22T02:11:33;99636.53;;;12.27;48.87
65384;BME280;51986;52.788;41.368;2023-06-22T02:14:02;99633.63;;;12.14;48.92
65384;BME280;51986;52.788;41.368;2023-06-22T02:16:31;99636.53;;;12.27;49.16
65384;BME280;51986;52.788;41.368;2023-06-22T02:19:01;99630.03;;;12.35;48.73
65384;BME280;51986;52.788;41.368;2023-06-22T02:21:29;99634.16;;;12.36;48.62
65384;BME280;51986;52.788;41.368;2023-06-22T02:23:56;99640.09;;;12.47;49.05
65384;BME280;51986;52.788;41.368;2023-06-22T02:26:24;99631.16;;;12.34;48.83
65384;BME280;51986;52.788;41.368;2023-06-22T02:28:53;99651.25;;;12.62;48.46
65384;BME280;51986;52.788;41.368;2023-06-22T02:31:20;99647.66;;;12.79;48.47
65384;BME280;51986;52.788;41.368;2023-06-22T02:33:47;99650.94;;;12.87;48.15
65384;BME280;51986;52.788;41.368;2023-06-22T02:36:18;99638.69;;;13.00;48.23
65384;BME280;51986;52.788;41.368;2023-06-22T02:38:45;99617.03;;;14.03;46.08
65384;BME280;51986;52.788;41.368;2023-06-22T02:41:12;99661.38;;;16.16;41.51
65384;BME280;51986;52.788;41.368;2023-06-22T02:43:38;99631.25;;;17.63;37.76
65384;BME280;51986;52.788;41.368;2023-06-22T02:46:05;99635.53;;;18.92;35.67
65384;BME280;51986;52.788;41.368;2023-06-22T02:48:32;99621.00;;;19.79;33.44
65384;BME280;51986;52.788;41.368;2023-06-22T02:50:59;99631.66;;;20.52;31.83
65384;BME280;51986;52.788;41.368;2023-06-22T02:53:27;99622.00;;;21.69;30.32
65384;BME280;51986;52.788;41.368;2023-06-22T02:55:54;99618.66;;;22.43;28.99
65384;BME280;51986;52.788;41.368;2023-06-22T02:58:20;99633.06;;;22.90;28.23
65384;BME280;51986;52.788;41.368;2023-06-22T03:00:48;99613.53;;;23.50;26.72
65384;BME280;51986;52.788;41.368;2023-06-22T03:03:15;99628.38;;;23.87;26.12
65384;BME280;51986;52.788;41.368;2023-06-22T03:05:42;99610.22;;;24.33;25.34
65384;BME280;51986;52.788;41.368;2023-06-22T03:08:09;99621.72;;;23.82;26.25
65384;BME280;51986;52.788;41.368;2023-06-22T03:10:36;99622.81;;;23.90;25.85
65384;BME280;51986;52.788;41.368;2023-06-22T03:13:04;99613.97;;;24.84;24.77
65384;BME280;51986;52.788;41.368;2023-06-22T03:15:31;99616.72;;;25.33;24.09
65384;BME280;51986;52.788;41.368;2023-06-22T03:17:57;99618.22;;;25.40;23.81
65384;BME280;51986;52.788;41.368;2023-06-22T03:20:24;99608.03;;;25.77;23.49
65384;BME280;51986;52.788;41.368;2023-06-22T03:22:52;99579.03;;;25.72;23.62
65384;BME280;51986;52.788;41.368;2023-06-22T03:25:19;99593.56;;;25.92;23.26
65384;BME280;51986;52.788;41.368;2023-06-22T03:27:48;99633.13;;;26.73;22.68
65384;BME280;51986;52.788;41.368;2023-06-22T03:30:15;99616.81;;;27.12;22.24
65384;BME280;51986;52.788;41.368;2023-06-22T03:32:42;99617.44;;;27.41;21.86
65384;BME280;51986;52.788;41.368;2023-06-22T03:35:09;99598.16;;;27.92;21.18
65384;BME280;51986;52.788;41.368;2023-06-22T03:37:36;99618.63;;;27.93;21.17
65384;BME280;51986;52.788;41.368;2023-06-22T03:40:05;99621.19;;;28.75;20.37
65384;BME280;51986;52.788;41.368;2023-06-22T03:42:34;99631.03;;;27.77;21.10
65384;BME280;51986;52.788;41.368;2023-06-22T03:45:03;99620.38;;;27.49;21.81
65384;BME280;51986;52.788;41.368;2023-06-22T03:47:30;99601.66;;;27.86;21.35
65384;BME280;51986;52.788;41.368;2023-06-22T03:49:57;99623.88;;;27.79;21.31
65384;BME280;51986;52.788;41.368;2023-06-22T03:52:24;99624.06;;;28.53;20.50
65384;BME280;51986;52.788;41.368;2023-06-22T03:54:51;99620.81;;;28.60;20.56
65384;BME280;51986;52.788;41.368;2023-06-22T03:57:18;99616.09;;;28.06;20.72
65384;BME280;51986;52.788;41.368;2023-06-22T03:59:45;99607.84;;;28.47;19.84
65384;BME280;51986;52.788;41.368;2023-06-22T04:02:12;99599.53;;;28.39;20.11
65384;BME280;51986;52.788;41.368;2023-06-22T04:04:39;99619.00;;;28.13;20.74
65384;BME280;51986;52.788;41.368;2023-06-22T04:07:07;99627.78;;;28.25;20.12
65384;BME280;51986;52.788;41.368;2023-06-22T04:09:34;99619.66;;;28.25;20.17
65384;BME280;51986;52.788;41.368;2023-06-22T04:12:01;99610.34;;;28.45;20.29
65384;BME280;51986;52.788;41.368;2023-06-22T04:14:28;99601.03;;;28.89;19.28
65384;BME280;51986;52.788;41.368;2023-06-22T04:16:56;99608.16;;;29.11;19.63
65384;BME280;51986;52.788;41.368;2023-06-22T04:19:22;99595.72;;;28.78;19.67
65384;BME280;51986;52.788;41.368;2023-06-22T04:21:49;99590.00;;;29.25;19.03
65384;BME280;51986;52.788;41.368;2023-06-22T04:24:16;99607.16;;;29.14;19.37
65384;BME280;51986;52.788;41.368;2023-06-22T04:26:43;99667.88;;;29.98;18.38
65384;BME280;51986;52.788;41.368;2023-06-22T04:29:29;99595.13;;;29.85;18.87
65384;BME280;51986;52.788;41.368;2023-06-22T04:31:57;99609.00;;;29.63;18.30
65384;BME280;51986;52.788;41.368;2023-06-22T04:34:25;99605.00;;;30.02;18.34
65384;BME280;51986;52.788;41.368;2023-06-22T04:36:52;99605.81;;;29.97;18.46
65384;BME280;51986;52.788;41.368;2023-06-22T04:39:19;99565.75;;;29.97;18.50
65384;BME280;51986;52.788;41.368;2023-06-22T04:41:46;99588.72;;;29.83;18.52
65384;BME280;51986;52.788;41.368;2023-06-22T04:44:17;99581.56;;;29.48;18.69
65384;BME280;51986;52.788;41.368;2023-06-22T04:46:44;99583.38;;;29.39;19.00
65384;BME280;51986;52.788;41.368;2023-06-22T04:49:11;99592.41;;;29.10;19.52
65384;BME280;51986;52.788;41.368;2023-06-22T04:51:42;99593.56;;;28.96;19.94
65384;BME280;51986;52.788;41.368;2023-06-22T04:54:09;99584.09;;;29.59;19.26
65384;BME280;51986;52.788;41.368;2023-06-22T04:56:37;99590.31;;;29.40;19.12
65384;BME280;51986;52.788;41.368;2023-06-22T04:59:04;99587.06;;;29.42;19.58
65384;BME280;51986;52.788;41.368;2023-06-22T05:01:31;99608.50;;;28.59;19.81
65384;BME280;51986;52.788;41.368;2023-06-22T05:03:58;99601.81;;;27.64;21.01
65384;BME280;51986;52.788;41.368;2023-06-22T05:06:25;99581.31;;;27.74;20.54
65384;BME280;51986;52.788;41.368;2023-06-22T05:08:56;99600.63;;;27.95;20.35
65384;BME280;51986;52.788;41.368;2023-06-22T05:11:25;99607.81;;;27.46;21.49
65384;BME280;51986;52.788;41.368;2023-06-22T05:13:53;99587.19;;;27.31;21.71
65384;BME280;51986;52.788;41.368;2023-06-22T05:16:21;99590.78;;;26.81;22.41
65384;BME280;51986;52.788;41.368;2023-06-22T05:18:48;99596.94;;;26.82;22.28
65384;BME280;51986;52.788;41.368;2023-06-22T05:21:15;99586.63;;;26.86;22.28
65384;BME280;51986;52.788;41.368;2023-06-22T05:23:42;99586.34;;;27.01;22.23
65384;BME280;51986;52.788;41.368;2023-06-22T05:26:09;99570.69;;;26.37;23.00
65384;BME280;51986;52.788;41.368;2023-06-22T05:28:35;99593.81;;;26.33;23.10
65384;BME280;51986;52.788;41.368;2023-06-22T05:31:02;99602.91;;;26.07;23.27
65384;BME280;51986;52.788;41.368;2023-06-22T05:33:29;99598.69;;;25.78;23.77
65384;BME280;51986;52.788;41.368;2023-06-22T05:35:56;99590.06;;;25.63;23.64
65384;BME280;51986;52.788;41.368;2023-06-22T05:38:23;99592.78;;;25.63;23.46
65384;BME280;51986;52.788;41.368;2023-06-22T05:40:50;99593.47;;;25.52;23.54
65384;BME280;51986;52.788;41.368;2023-06-22T05:43:17;99582.97;;;25.00;23.50
65384;BME280;51986;52.788;41.368;2023-06-22T05:45:44;99597.16;;;24.95;23.52
65384;BME280;51986;52.788;41.368;2023-06-22T05:48:11;99599.28;;;24.85;23.53
65384;BME280;51986;52.788;41.368;2023-06-22T05:50:38;99591.44;;;24.88;24.00
65384;BME280;51986;52.788;41.368;2023-06-22T05:53:06;99578.31;;;24.64;24.13
65384;BME280;51986;52.788;41.368;2023-06-22T05:55:34;99591.38;;;24.71;24.42
65384;BME280;51986;52.788;41.368;2023-06-22T05:58:01;99610.69;;;25.01;23.13
65384;BME280;51986;52.788;41.368;2023-06-22T06:00:28;99586.94;;;25.10;22.79
65384;BME280;51986;52.788;41.368;2023-06-22T06:02:56;99579.56;;;25.11;22.95
65384;BME280;51986;52.788;41.368;2023-06-22T06:05:23;99583.75;;;25.12;23.99
65384;BME280;51986;52.788;41.368;2023-06-22T06:07:50;99590.13;;;24.72;24.57
65384;BME280;51986;52.788;41.368;2023-06-22T06:10:17;99571.31;;;24.83;23.21
65384;BME280;51986;52.788;41.368;2023-06-22T06:12:44;99575.22;;;24.76;23.44
65384;BME280;51986;52.788;41.368;2023-06-22T06:15:11;99591.41;;;24.76;23.74
65384;BME280;51986;52.788;41.368;2023-06-22T06:17:53;99575.22;;;25.25;23.89
65384;BME280;51986;52.788;41.368;2023-06-22T06:20:22;99571.09;;;25.52;23.87
65384;BME280;51986;52.788;41.368;2023-06-22T06:22:50;99566.38;;;25.24;21.94
65384;BME280;51986;52.788;41.368;2023-06-22T06:25:17;99566.41;;;25.47;21.84
65384;BME280;51986;52.788;41.368;2023-06-22T06:27:45;99579.38;;;25.26;21.66
65384;BME280;51986;52.788;41.368;2023-06-22T06:30:15;99577.88;;;25.19;20.70
65384;BME280;51986;52.788;41.368;2023-06-22T06:35:47;99564.19;;;25.34;22.08
65384;BME280;51986;52.788;41.368;2023-06-22T06:38:14;99570.75;;;25.16;20.55
65384;BME280;51986;52.788;41.368;2023-06-22T06:40:41;99558.06;;;25.45;21.06
65384;BME280;51986;52.788;41.368;2023-06-22T06:43:08;99540.72;;;26.02;20.46
65384;BME280;51986;52.788;41.368;2023-06-22T06:45:35;99557.66;;;24.98;20.89
65384;BME280;51986;52.788;41.368;2023-06-22T06:48:20;99586.00;;;24.39;21.72
65384;BME280;51986;52.788;41.368;2023-06-22T06:50:47;99587.69;;;25.22;21.40
65384;BME280;51986;52.788;41.368;2023-06-22T06:53:14;99576.47;;;24.87;22.02
65384;BME280;51986;52.788;41.368;2023-06-22T06:55:41;99563.94;;;24.83;21.88
65384;BME280;51986;52.788;41.368;2023-06-22T06:58:08;99562.94;;;25.24;21.48
65384;BME280;51986;52.788;41.368;2023-06-22T07:00:35;99580.41;;;25.40;21.56
65384;BME280;51986;52.788;41.368;2023-06-22T07:03:02;99570.63;;;25.53;21.11
65384;BME280;51986;52.788;41.368;2023-06-22T07:05:30;99576.66;;;25.20;21.85
65384;BME280;51986;52.788;41.368;2023-06-22T07:07:56;99555.38;;;24.85;21.73
65384;BME280;51986;52.788;41.368;2023-06-22T07:10:42;99570.16;;;24.52;21.83
65384;BME280;51986;52.788;41.368;2023-06-22T07:13:09;99565.03;;;24.97;20.86
65384;BME280;51986;52.788;41.368;2023-06-22T07:15:37;99551.44;;;25.51;20.94
65384;BME280;51986;52.788;41.368;2023-06-22T07:18:04;99545.13;;;25.71;21.30
65384;BME280;51986;52.788;41.368;2023-06-22T07:20:31;99554.00;;;25.89;20.20
65384;BME280;51986;52.788;41.368;2023-06-22T07:22:59;99557.69;;;26.08;20.12
65384;BME280;51986;52.788;41.368;2023-06-22T07:25:26;99544.13;;;26.58;20.05
65384;BME280;51986;52.788;41.368;2023-06-22T07:28:04;99569.47;;;25.82;20.39
65384;BME280;51986;52.788;41.368;2023-06-22T07:30:32;99508.28;;;26.30;19.64
65384;BME280;51986;52.788;41.368;2023-06-22T07:33:00;99559.16;;;25.92;20.12
65384;BME280;51986;52.788;41.368;2023-06-22T07:35:28;99531.63;;;25.99;19.70
65384;BME280;51986;52.788;41.368;2023-06-22T07:37:55;99574.91;;;26.22;19.66
65384;BME280;51986;52.788;41.368;2023-06-22T07:40:22;99531.84;;;26.52;20.14
65384;BME280;51986;52.788;41.368;2023-06-22T07:42:49;99543.13;;;26.56;20.05
65384;BME280;51986;52.788;41.368;2023-06-22T07:45:35;99547.09;;;26.49;19.93
65384;BME280;51986;52.788;41.368;2023-06-22T07:48:02;99545.66;;;26.31;20.07
65384;BME280;51986;52.788;41.368;2023-06-22T07:50:29;99553.00;;;26.03;20.04
65384;BME280;51986;52.788;41.368;2023-06-22T07:52:57;99542.19;;;25.69;20.39
65384;BME280;51986;52.788;41.368;2023-06-22T07:55:24;99523.03;;;25.78;20.20
65384;BME280;51986;52.788;41.368;2023-06-22T07:57:51;99546.63;;;25.89;20.33
65384;BME280;51986;52.788;41.368;2023-06-22T08:00:18;99562.72;;;25.39;20.77
65384;BME280;51986;52.788;41.368;2023-06-22T08:02:46;99549.66;;;25.15;21.04
65384;BME280;51986;52.788;41.368;2023-06-22T08:05:14;99547.13;;;25.76;20.98
65384;BME280;51986;52.788;41.368;2023-06-22T08:07:49;99541.22;;;26.06;20.88
65384;BME280;51986;52.788;41.368;2023-06-22T08:10:17;99567.00;;;25.73;20.64
65384;BME280;51986;52.788;41.368;2023-06-22T08:12:44;99543.44;;;26.24;20.09
65384;BME280;51986;52.788;41.368;2023-06-22T08:15:29;99564.56;;;25.98;20.79
65384;BME280;51986;52.788;41.368;2023-06-22T08:18:15;99538.00;;;26.19;20.63
65384;BME280;51986;52.788;41.368;2023-06-22T08:20:42;99544.66;;;26.01;20.65
65384;BME280;51986;52.788;41.368;2023-06-22T08:23:09;99553.00;;;25.92;20.36
65384;BME280;51986;52.788;41.368;2023-06-22T08:25:36;99559.16;;;25.92;20.93
65384;BME280;51986;52.788;41.368;2023-06-22T08:28:22;99544.88;;;25.69;20.82
65384;BME280;51986;52.788;41.368;2023-06-22T08:30:49;99596.25;;;25.97;21.21
65384;BME280;51986;52.788;41.368;2023-06-22T08:33:34;99547.13;;;26.21;20.79
65384;BME280;51986;52.788;41.368;2023-06-22T08:36:02;99542.94;;;26.26;20.08
65384;BME280;51986;52.788;41.368;2023-06-22T08:38:28;99539.75;;;26.39;20.09
65384;BME280;51986;52.788;41.368;2023-06-22T08:40:55;99548.81;;;26.47;19.72
65384;BME280;51986;52.788;41.368;2023-06-22T08:43:22;99561.38;;;26.05;20.51
65384;BME280;51986;52.788;41.368;2023-06-22T08:45:49;99580.03;;;25.86;20.18
65384;BME280;51986;52.788;41.368;2023-06-22T08:48:16;99538.28;;;26.26;19.96
65384;BME280;51986;52.788;41.368;2023-06-22T08:50:43;99540.13;;;26.76;19.89
65384;BME280;51986;52.788;41.368;2023-06-22T08:53:10;99546.91;;;27.58;19.36
65384;BME280;51986;52.788;41.368;2023-06-22T08:55:37;99546.47;;;26.96;19.79
65384;BME280;51986;52.788;41.368;2023-06-22T08:58:04;99521.69;;;26.75;20.15
65384;BME280;51986;52.788;41.368;2023-06-22T09:00:49;99553.41;;;26.85;19.63
65384;BME280;51986;52.788;41.368;2023-06-22T09:03:17;99531.00;;;26.79;19.22
65384;BME280;51986;52.788;41.368;2023-06-22T09:05:44;99574.09;;;26.66;19.65
65384;BME280;51986;52.788;41.368;2023-06-22T09:08:11;99503.72;;;26.77;19.43
65384;BME280;51986;52.788;41.368;2023-06-22T09:10:38;99543.44;;;27.16;19.21
65384;BME280;51986;52.788;41.368;2023-06-22T09:13:07;99507.47;;;27.62;18.64
65384;BME280;51986;52.788;41.368;2023-06-22T09:15:53;99541.59;;;26.88;19.34
65384;BME280;51986;52.788;41.368;2023-06-22T09:21:06;99528.59;;;27.28;18.63
65384;BME280;51986;52.788;41.368;2023-06-22T09:23:51;99546.25;;;26.82;19.55
65384;BME280;51986;52.788;41.368;2023-06-22T09:26:19;99513.81;;;26.77;18.89
65384;BME280;51986;52.788;41.368;2023-06-22T09:32:09;99578.66;;;27.05;19.38
65384;BME280;51986;52.788;41.368;2023-06-22T09:34:36;99518.31;;;26.52;20.09
65384;BME280;51986;52.788;41.368;2023-06-22T09:37:03;99529.13;;;26.63;19.74
65384;BME280;51986;52.788;41.368;2023-06-22T09:42:16;99500.09;;;26.63;20.12
65384;BME280;51986;52.788;41.368;2023-06-22T09:44:43;99519.72;;;26.86;19.81
65384;BME280;51986;52.788;41.368;2023-06-22T09:47:10;99538.88;;;26.88;20.01
65384;BME280;51986;52.788;41.368;2023-06-22T09:49:37;99526.63;;;26.65;19.90
65384;BME280;51986;52.788;41.368;2023-06-22T09:52:15;99532.19;;;27.01;20.00
65384;BME280;51986;52.788;41.368;2023-06-22T09:54:42;99535.41;;;26.94;19.84
65384;BME280;51986;52.788;41.368;2023-06-22T09:57:09;99536.19;;;26.88;19.79
65384;BME280;51986;52.788;41.368;2023-06-22T09:59:36;99521.19;;;26.87;19.90
65384;BME280;51986;52.788;41.368;2023-06-22T10:02:03;99510.94;;;27.16;19.93
65384;BME280;51986;52.788;41.368;2023-06-22T10:04:30;99534.81;;;26.20;20.29
65384;BME280;51986;52.788;41.368;2023-06-22T10:07:16;99531.88;;;26.29;20.38
65384;BME280;51986;52.788;41.368;2023-06-22T10:09:43;99493.78;;;25.94;21.03
65384;BME280;51986;52.788;41.368;2023-06-22T10:12:10;99523.28;;;26.20;20.11
65384;BME280;51986;52.788;41.368;2023-06-22T10:14:56;99502.25;;;26.71;19.83
65384;BME280;51986;52.788;41.368;2023-06-22T10:17:23;99532.31;;;26.67;20.16
65384;BME280;51986;52.788;41.368;2023-06-22T10:19:50;99476.84;;;26.10;20.70
65384;BME280;51986;52.788;41.368;2023-06-22T10:22:17;99538.53;;;26.23;21.00
65384;BME280;51986;52.788;41.368;2023-06-22T10:25:03;99523.03;;;25.84;21.04
65384;BME280;51986;52.788;41.368;2023-06-22T10:27:30;99530.66;;;26.08;20.63
65384;BME280;51986;52.788;41.368;2023-06-22T10:29:57;99498.72;;;26.29;20.30
65384;BME280;51986;52.788;41.368;2023-06-22T10:32:24;99473.13;;;26.30;20.25
65384;BME280;51986;52.788;41.368;2023-06-22T10:34:51;99472.44;;;25.79;21.08
65384;BME280;51986;52.788;41.368;2023-06-22T10:40:04;99489.94;;;26.75;19.67
65384;BME280;51986;52.788;41.368;2023-06-22T10:42:31;99453.44;;;26.99;19.45
65384;BME280;51986;52.788;41.368;2023-06-22T10:47:44;99492.34;;;26.96;19.75
65384;BME280;51986;52.788;41.368;2023-06-22T10:50:11;99498.22;;;26.08;20.12
65384;BME280;51986;52.788;41.368;2023-06-22T10:52:38;99500.75;;;26.86;19.67
65384;BME280;51986;52.788;41.368;2023-06-22T10:55:06;99486.13;;;27.12;19.40
65384;BME280;51986;52.788;41.368;2023-06-22T10:57:33;99462.50;;;27.43;19.04
65384;BME280;51986;52.788;41.368;2023-06-22T11:00:18;99460.97;;;27.53;18.83
65384;BME280;51986;52.788;41.368;2023-06-22T11:05:31;99465.22;;;27.07;19.96
65384;BME280;51986;52.788;41.368;2023-06-22T11:07:58;99454.44;;;27.01;19.92
65384;BME280;51986;52.788;41.368;2023-06-22T11:10:25;99467.44;;;26.45;19.98
65384;BME280;51986;52.788;41.368;2023-06-22T11:12:53;99457.59;;;26.42;19.86
65384;BME280;51986;52.788;41.368;2023-06-22T11:15:20;99469.09;;;26.65;20.14
65384;BME280;51986;52.788;41.368;2023-06-22T11:17:47;99426.06;;;26.61;20.18
65384;BME280;51986;52.788;41.368;2023-06-22T11:20:14;99441.28;;;26.70;20.12
65384;BME280;51986;52.788;41.368;2023-06-22T11:22:41;99440.91;;;26.32;19.98
65384;BME280;51986;52.788;41.368;2023-06-22T11:27:54;99454.66;;;26.40;20.08
65384;BME280;51986;52.788;41.368;2023-06-22T11:30:21;99444.78;;;26.48;20.08
65384;BME280;51986;52.788;41.368;2023-06-22T11:32:48;99453.53;;;26.76;19.85
65384;BME280;51986;52.788;41.368;2023-06-22T11:35:33;99458.09;;;26.46;20.46
65384;BME280;51986;52.788;41.368;2023-06-22T11:38:01;99481.72;;;26.40;20.79
65384;BME280;51986;52.788;41.368;2023-06-22T11:40:28;99426.22;;;25.99;21.00
65384;BME280;51986;52.788;41.368;2023-06-22T11:42:55;99434.88;;;25.58;21.25
65384;BME280;51986;52.788;41.368;2023-06-22T11:45:22;99458.88;;;25.51;21.76
65384;BME280;51986;52.788;41.368;2023-06-22T11:50:35;99431.44;;;25.64;21.69
65384;BME280;51986;52.788;41.368;2023-06-22T11:55:48;99456.47;;;25.92;21.06
65384;BME280;51986;52.788;41.368;2023-06-22T12:01:00;99438.22;;;26.09;20.82
65384;BME280;51986;52.788;41.368;2023-06-22T12:03:27;99453.97;;;26.11;20.81
65384;BME280;51986;52.788;41.368;2023-06-22T12:05:54;99444.91;;;25.80;21.32
65384;BME280;51986;52.788;41.368;2023-06-22T12:08:22;99426.97;;;25.89;20.92
65384;BME280;51986;52.788;41.368;2023-06-22T12:10:49;99430.13;;;26.15;21.03
65384;BME280;51986;52.788;41.368;2023-06-22T12:13:16;99456.53;;;26.61;20.17
65384;BME280;51986;52.788;41.368;2023-06-22T12:15:43;99453.31;;;26.74;20.21
65384;BME280;51986;52.788;41.368;2023-06-22T12:18:11;99417.00;;;26.53;20.40
65384;BME280;51986;52.788;41.368;2023-06-22T12:20:38;99416.69;;;26.62;20.21
65384;BME280;51986;52.788;41.368;2023-06-22T12:23:05;99432.31;;;26.33;19.80
65384;BME280;51986;52.788;41.368;2023-06-22T12:25:50;99413.75;;;26.60;20.08
65384;BME280;51986;52.788;41.368;2023-06-22T12:31:03;99421.72;;;27.29;20.29
65384;BME280;51986;52.788;41.368;2023-06-22T12:33:48;99404.38;;;27.44;19.76
65384;BME280;51986;52.788;41.368;2023-06-22T12:39:01;99423.56;;;26.69;20.43
65384;BME280;51986;52.788;41.368;2023-06-22T12:41:46;99426.00;;;25.97;21.14
65384;BME280;51986;52.788;41.368;2023-06-22T12:44:32;99444.34;;;26.32;20.92
65384;BME280;51986;52.788;41.368;2023-06-22T12:46:59;99411.94;;;26.16;20.81
65384;BME280;51986;52.788;41.368;2023-06-22T12:49:26;99416.91;;;25.89;21.70
65384;BME280;51986;52.788;41.368;2023-06-22T12:51:53;99427.00;;;25.72;21.72
65384;BME280;51986;52.788;41.368;2023-06-22T12:54:38;99411.03;;;25.74;21.99
65384;BME280;51986;52.788;41.368;2023-06-22T12:57:19;99437.28;;;26.01;21.57
65384;BME280;51986;52.788;41.368;2023-06-22T12:59:46;99427.41;;;26.21;21.45
65384;BME280;51986;52.788;41.368;2023-06-22T13:02:32;99428.91;;;26.16;21.33
65384;BME280;51986;52.788;41.368;2023-06-22T13:04:59;99415.69;;;25.96;21.35
65384;BME280;51986;52.788;41.368;2023-06-22T13:07:44;99427.44;;;26.04;21.20
65384;BME280;51986;52.788;41.368;2023-06-22T13:10:11;99448.63;;;25.72;21.88
65384;BME280;51986;52.788;41.368;2023-06-22T13:12:38;99422.81;;;25.88;21.82
65384;BME280;51986;52.788;41.368;2023-06-22T13:15:06;99419.84;;;26.02;21.78
65384;BME280;51986;52.788;41.368;2023-06-22T13:17:33;99415.94;;;25.75;21.62
65384;BME280;51986;52.788;41.368;2023-06-22T13:20:00;99402.09;;;26.18;21.33
65384;BME280;51986;52.788;41.368;2023-06-22T13:22:34;99390.88;;;25.92;21.52
65384;BME280;51986;52.788;41.368;2023-06-22T13:25:20;99408.00;;;26.28;21.56
65384;BME280;51986;52.788;41.368;2023-06-22T13:28:06;99390.09;;;26.02;21.82
65384;BME280;51986;52.788;41.368;2023-06-22T13:30:38;99402.63;;;26.00;21.67
65384;BME280;51986;52.788;41.368;2023-06-22T13:33:24;99381.06;;;25.77;22.15
65384;BME280;51986;52.788;41.368;2023-06-22T13:35:51;99376.41;;;25.55;22.26
65384;BME280;51986;52.788;41.368;2023-06-22T13:38:18;99393.09;;;25.26;22.40
65384;BME280;51986;52.788;41.368;2023-06-22T13:40:45;99381.31;;;25.01;23.06
65384;BME280;51986;52.788;41.368;2023-06-22T13:43:12;99396.03;;;25.28;22.14